sensor_id;sensor_type;location;lat;lon;timestamp;P1;durP1;ratioP1;P2;durP2;ratioP2
7128;SDS011;3606;52.930;8.644;2023-02-22T00:00:16;35.37;;;20.07;;
7128;SDS011;3606;52.930;8.644;2023-02-22T00:02:46;33.23;;;19.77;;
7128;SDS011;3606;52.930;8.644;2023-02-22T00:05:17;34.83;;;19.37;;
7128;SDS011;3606;52.930;8.644;2023-02-22T00:07:47;38.87;;;21.37;;
7128;SDS011;3606;52.930;8.644;2023-02-22T00:10:14;35.60;;;20.20;;
7128;SDS011;3606;52.930;8.644;2023-02-22T00:12:44;41.10;;;21.73;;
7128;SDS011;3606;52.930;8.644;2023-02-22T00:15:14;34.50;;;20.43;;
7128;SDS011;3606;52.930;8.644;2023-02-22T00:17:41;41.87;;;22.10;;
7128;SDS011;3606;52.930;8.644;2023-02-22T00:20:07;39.47;;;22.13;;
7128;SDS011;3606;52.930;8.644;2023-02-22T00:22:38;46.63;;;22.80;;
7128;SDS011;3606;52.930;8.644;2023-02-22T00:25:08;42.20;;;23.17;;
7128;SDS011;3606;52.930;8.644;2023-02-22T00:27:34;40.87;;;23.27;;
7128;SDS011;3606;52.930;8.644;2023-02-22T00:30:01;41.43;;;22.07;;
7128;SDS011;3606;52.930;8.644;2023-02-22T00:32:27;36.90;;;19.93;;
7128;SDS011;3606;52.930;8.644;2023-02-22T00:34:53;40.33;;;21.43;;
7128;SDS011;3606;52.930;8.644;2023-02-22T00:37:19;39.43;;;21.77;;
7128;SDS011;3606;52.930;8.644;2023-02-22T00:39:48;36.40;;;19.43;;
7128;SDS011;3606;52.930;8.644;2023-02-22T00:42:15;38.20;;;20.80;;
7128;SDS011;3606;52.930;8.644;2023-02-22T00:44:41;33.00;;;19.93;;
7128;SDS011;3606;52.930;8.644;2023-02-22T00:47:07;39.93;;;20.17;;
7128;SDS011;3606;52.930;8.644;2023-02-22T00:49:33;36.17;;;20.43;;
7128;SDS011;3606;52.930;8.644;2023-02-22T00:51:59;33.73;;;19.50;;
7128;SDS011;3606;52.930;8.644;2023-02-22T00:54:25;32.30;;;18.40;;
7128;SDS011;3606;52.930;8.644;2023-02-22T00:56:51;33.93;;;18.93;;
7128;SDS011;3606;52.930;8.644;2023-02-22T00:59:17;30.70;;;18.80;;
7128;SDS011;3606;52.930;8.644;2023-02-22T01:01:42;35.77;;;19.40;;
7128;SDS011;3606;52.930;8.644;2023-02-22T01:04:08;34.87;;;18.83;;
7128;SDS011;3606;52.930;8.644;2023-02-22T01:06:34;34.73;;;17.60;;
7128;SDS011;3606;52.930;8.644;2023-02-22T01:09:00;31.67;;;18.07;;
7128;SDS011;3606;52.930;8.644;2023-02-22T01:11:26;32.50;;;18.77;;
7128;SDS011;3606;52.930;8.644;2023-02-22T01:13:52;31.50;;;17.30;;
7128;SDS011;3606;52.930;8.644;2023-02-22T01:16:19;31.57;;;18.83;;
7128;SDS011;3606;52.930;8.644;2023-02-22T01:18:45;34.37;;;17.87;;
7128;SDS011;3606;52.930;8.644;2023-02-22T01:21:10;26.30;;;17.30;;
7128;SDS011;3606;52.930;8.644;2023-02-22T01:23:36;32.10;;;18.47;;
7128;SDS011;3606;52.930;8.644;2023-02-22T01:26:02;31.73;;;18.70;;
7128;SDS011;3606;52.930;8.644;2023-02-22T01:28:30;34.53;;;18.23;;
7128;SDS011;3606;52.930;8.644;2023-02-22T01:30:56;33.90;;;18.30;;
7128;SDS011;3606;52.930;8.644;2023-02-22T01:33:22;35.77;;;18.70;;
7128;SDS011;3606;52.930;8.644;2023-02-22T01:35:48;36.20;;;19.90;;
7128;SDS011;3606;52.930;8.644;2023-02-22T01:38:14;31.77;;;17.90;;
7128;SDS011;3606;52.930;8.644;2023-02-22T01:40:41;29.13;;;16.40;;
7128;SDS011;3606;52.930;8.644;2023-02-22T01:43:18;32.17;;;18.33;;
7128;SDS011;3606;52.930;8.644;2023-02-22T01:45:56;31.77;;;17.10;;
7128;SDS011;3606;52.930;8.644;2023-02-22T01:51:44;29.90;;;18.50;;
7128;SDS011;3606;52.930;8.644;2023-02-22T01:54:14;33.73;;;18.60;;
7128;SDS011;3606;52.930;8.644;2023-02-22T01:56:56;31.70;;;18.00;;
7128;SDS011;3606;52.930;8.644;2023-02-22T01:59:42;27.27;;;17.63;;
7128;SDS011;3606;52.930;8.644;2023-02-22T02:02:10;33.23;;;18.70;;
7128;SDS011;3606;52.930;8.644;2023-02-22T02:04:38;29.87;;;18.10;;
7128;SDS011;3606;52.930;8.644;2023-02-22T02:07:06;32.30;;;18.97;;
7128;SDS011;3606;52.930;8.644;2023-02-22T02:09:37;43.77;;;20.10;;
7128;SDS011;3606;52.930;8.644;2023-02-22T02:12:04;34.00;;;19.03;;
7128;SDS011;3606;52.930;8.644;2023-02-22T02:14:32;34.60;;;19.47;;
7128;SDS011;3606;52.930;8.644;2023-02-22T02:17:04;35.93;;;18.33;;
7128;SDS011;3606;52.930;8.644;2023-02-22T02:19:44;38.33;;;19.13;;
7128;SDS011;3606;52.930;8.644;2023-02-22T02:31:18;37.07;;;19.17;;
7128;SDS011;3606;52.930;8.644;2023-02-22T02:33:51;31.63;;;18.37;;
7128;SDS011;3606;52.930;8.644;2023-02-22T02:39:35;32.10;;;18.33;;
7128;SDS011;3606;52.930;8.644;2023-02-22T02:42:06;36.42;;;21.90;;
7128;SDS011;3606;52.930;8.644;2023-02-22T02:44:38;32.53;;;18.33;;
7128;SDS011;3606;52.930;8.644;2023-02-22T02:47:23;38.85;;;22.10;;
7128;SDS011;3606;52.930;8.644;2023-02-22T02:50:00;32.60;;;18.67;;
7128;SDS011;3606;52.930;8.644;2023-02-22T02:52:38;31.37;;;17.10;;
7128;SDS011;3606;52.930;8.644;2023-02-22T02:55:05;30.93;;;16.90;;
7128;SDS011;3606;52.930;8.644;2023-02-22T02:57:33;31.23;;;17.70;;
7128;SDS011;3606;52.930;8.644;2023-02-22T02:59:58;30.23;;;17.30;;
7128;SDS011;3606;52.930;8.644;2023-02-22T03:07:54;31.03;;;16.73;;
7128;SDS011;3606;52.930;8.644;2023-02-22T03:15:56;32.30;;;17.87;;
7128;SDS011;3606;52.930;8.644;2023-02-22T03:24:30;35.80;;;18.57;;
7128;SDS011;3606;52.930;8.644;2023-02-22T03:27:34;33.07;;;17.67;;
7128;SDS011;3606;52.930;8.644;2023-02-22T03:29:59;36.50;;;18.73;;
7128;SDS011;3606;52.930;8.644;2023-02-22T03:32:30;33.80;;;18.03;;
7128;SDS011;3606;52.930;8.644;2023-02-22T03:35:02;34.07;;;19.00;;
7128;SDS011;3606;52.930;8.644;2023-02-22T03:37:34;33.07;;;18.13;;
7128;SDS011;3606;52.930;8.644;2023-02-22T03:40:04;29.53;;;18.40;;
7128;SDS011;3606;52.930;8.644;2023-02-22T03:42:42;35.33;;;18.07;;
7128;SDS011;3606;52.930;8.644;2023-02-22T03:45:12;38.97;;;18.00;;
7128;SDS011;3606;52.930;8.644;2023-02-22T03:47:41;34.83;;;18.60;;
7128;SDS011;3606;52.930;8.644;2023-02-22T03:50:13;26.70;;;16.73;;
7128;SDS011;3606;52.930;8.644;2023-02-22T03:52:42;29.90;;;17.63;;
7128;SDS011;3606;52.930;8.644;2023-02-22T03:55:09;34.53;;;18.93;;
7128;SDS011;3606;52.930;8.644;2023-02-22T03:57:40;32.60;;;16.83;;
7128;SDS011;3606;52.930;8.644;2023-02-22T04:00:11;29.43;;;17.97;;
7128;SDS011;3606;52.930;8.644;2023-02-22T04:02:39;34.87;;;17.20;;
7128;SDS011;3606;52.930;8.644;2023-02-22T04:05:05;25.40;;;16.77;;
7128;SDS011;3606;52.930;8.644;2023-02-22T04:07:31;31.67;;;17.80;;
7128;SDS011;3606;52.930;8.644;2023-02-22T04:09:57;32.23;;;17.47;;
7128;SDS011;3606;52.930;8.644;2023-02-22T04:12:22;30.80;;;16.83;;
7128;SDS011;3606;52.930;8.644;2023-02-22T04:14:48;34.20;;;18.37;;
7128;SDS011;3606;52.930;8.644;2023-02-22T04:17:14;37.40;;;18.43;;
7128;SDS011;3606;52.930;8.644;2023-02-22T04:19:39;32.80;;;18.73;;
7128;SDS011;3606;52.930;8.644;2023-02-22T04:22:05;35.33;;;17.03;;
7128;SDS011;3606;52.930;8.644;2023-02-22T04:24:30;37.10;;;17.97;;
7128;SDS011;3606;52.930;8.644;2023-02-22T04:26:56;35.90;;;17.97;;
7128;SDS011;3606;52.930;8.644;2023-02-22T04:29:22;29.63;;;17.60;;
7128;SDS011;3606;52.930;8.644;2023-02-22T04:31:48;34.20;;;16.73;;
7128;SDS011;3606;52.930;8.644;2023-02-22T04:34:14;29.87;;;15.87;;
7128;SDS011;3606;52.930;8.644;2023-02-22T04:36:40;29.50;;;16.30;;
7128;SDS011;3606;52.930;8.644;2023-02-22T04:39:08;31.00;;;16.83;;
7128;SDS011;3606;52.930;8.644;2023-02-22T04:41:34;28.30;;;15.90;;
7128;SDS011;3606;52.930;8.644;2023-02-22T04:43:59;35.57;;;16.87;;
7128;SDS011;3606;52.930;8.644;2023-02-22T04:46:25;33.27;;;16.50;;
7128;SDS011;3606;52.930;8.644;2023-02-22T04:48:50;27.13;;;15.17;;
7128;SDS011;3606;52.930;8.644;2023-02-22T04:51:17;30.87;;;17.07;;
7128;SDS011;3606;52.930;8.644;2023-02-22T04:53:43;31.63;;;16.63;;
7128;SDS011;3606;52.930;8.644;2023-02-22T04:56:09;29.13;;;17.10;;
7128;SDS011;3606;52.930;8.644;2023-02-22T04:58:35;32.80;;;17.10;;
7128;SDS011;3606;52.930;8.644;2023-02-22T05:01:00;38.77;;;18.03;;
7128;SDS011;3606;52.930;8.644;2023-02-22T05:03:27;37.03;;;18.63;;
7128;SDS011;3606;52.930;8.644;2023-02-22T05:05:52;37.43;;;18.67;;
7128;SDS011;3606;52.930;8.644;2023-02-22T05:08:18;37.60;;;18.47;;
7128;SDS011;3606;52.930;8.644;2023-02-22T05:10:44;41.53;;;20.20;;
7128;SDS011;3606;52.930;8.644;2023-02-22T05:13:09;41.13;;;19.53;;
7128;SDS011;3606;52.930;8.644;2023-02-22T05:15:35;42.70;;;22.20;;
7128;SDS011;3606;52.930;8.644;2023-02-22T05:18:00;45.00;;;21.50;;
7128;SDS011;3606;52.930;8.644;2023-02-22T05:20:27;48.97;;;22.60;;
7128;SDS011;3606;52.930;8.644;2023-02-22T05:22:56;44.67;;;20.10;;
7128;SDS011;3606;52.930;8.644;2023-02-22T05:25:22;50.67;;;22.60;;
7128;SDS011;3606;52.930;8.644;2023-02-22T05:27:52;44.57;;;20.77;;
7128;SDS011;3606;52.930;8.644;2023-02-22T05:30:20;50.77;;;20.67;;
7128;SDS011;3606;52.930;8.644;2023-02-22T05:32:48;46.77;;;22.00;;
7128;SDS011;3606;52.930;8.644;2023-02-22T05:35:14;44.27;;;21.30;;
7128;SDS011;3606;52.930;8.644;2023-02-22T05:37:41;43.40;;;20.70;;
7128;SDS011;3606;52.930;8.644;2023-02-22T05:40:06;45.33;;;22.07;;
7128;SDS011;3606;52.930;8.644;2023-02-22T05:42:32;52.17;;;21.63;;
7128;SDS011;3606;52.930;8.644;2023-02-22T05:44:58;52.90;;;21.33;;
7128;SDS011;3606;52.930;8.644;2023-02-22T05:47:24;49.00;;;20.23;;
7128;SDS011;3606;52.930;8.644;2023-02-22T05:49:51;51.20;;;21.40;;
7128;SDS011;3606;52.930;8.644;2023-02-22T05:52:16;47.63;;;22.07;;
7128;SDS011;3606;52.930;8.644;2023-02-22T05:54:42;52.27;;;22.53;;
7128;SDS011;3606;52.930;8.644;2023-02-22T05:57:08;48.43;;;21.50;;
7128;SDS011;3606;52.930;8.644;2023-02-22T05:59:33;48.13;;;21.40;;
7128;SDS011;3606;52.930;8.644;2023-02-22T06:01:59;45.90;;;20.23;;
7128;SDS011;3606;52.930;8.644;2023-02-22T06:04:24;48.63;;;21.00;;
7128;SDS011;3606;52.930;8.644;2023-02-22T06:06:50;47.50;;;21.37;;
7128;SDS011;3606;52.930;8.644;2023-02-22T06:09:15;43.60;;;20.47;;
7128;SDS011;3606;52.930;8.644;2023-02-22T06:11:41;47.43;;;20.40;;
7128;SDS011;3606;52.930;8.644;2023-02-22T06:14:07;41.20;;;20.37;;
7128;SDS011;3606;52.930;8.644;2023-02-22T06:16:32;42.57;;;19.90;;
7128;SDS011;3606;52.930;8.644;2023-02-22T06:18:58;38.23;;;18.57;;
7128;SDS011;3606;52.930;8.644;2023-02-22T06:21:24;44.37;;;20.70;;
7128;SDS011;3606;52.930;8.644;2023-02-22T06:23:51;43.50;;;19.63;;
7128;SDS011;3606;52.930;8.644;2023-02-22T06:26:17;38.63;;;18.63;;
7128;SDS011;3606;52.930;8.644;2023-02-22T06:28:46;50.27;;;20.13;;
7128;SDS011;3606;52.930;8.644;2023-02-22T06:31:12;44.37;;;19.13;;
7128;SDS011;3606;52.930;8.644;2023-02-22T06:33:38;42.47;;;19.70;;
7128;SDS011;3606;52.930;8.644;2023-02-22T06:36:03;42.77;;;20.37;;
7128;SDS011;3606;52.930;8.644;2023-02-22T06:38:29;41.03;;;19.57;;
7128;SDS011;3606;52.930;8.644;2023-02-22T06:40:55;41.90;;;18.47;;
7128;SDS011;3606;52.930;8.644;2023-02-22T06:43:21;44.43;;;19.23;;
7128;SDS011;3606;52.930;8.644;2023-02-22T06:45:48;51.53;;;19.40;;
7128;SDS011;3606;52.930;8.644;2023-02-22T06:48:14;41.47;;;20.20;;
7128;SDS011;3606;52.930;8.644;2023-02-22T06:50:40;41.97;;;19.00;;
7128;SDS011;3606;52.930;8.644;2023-02-22T06:53:06;39.97;;;18.83;;
7128;SDS011;3606;52.930;8.644;2023-02-22T06:55:32;44.00;;;18.80;;
7128;SDS011;3606;52.930;8.644;2023-02-22T06:57:59;43.93;;;19.50;;
7128;SDS011;3606;52.930;8.644;2023-02-22T07:00:25;38.43;;;18.80;;
7128;SDS011;3606;52.930;8.644;2023-02-22T07:02:53;45.20;;;19.20;;
7128;SDS011;3606;52.930;8.644;2023-02-22T07:05:20;38.37;;;16.97;;
7128;SDS011;3606;52.930;8.644;2023-02-22T07:07:47;39.93;;;18.07;;
7128;SDS011;3606;52.930;8.644;2023-02-22T07:10:15;40.17;;;17.73;;
7128;SDS011;3606;52.930;8.644;2023-02-22T07:12:48;36.57;;;17.13;;
7128;SDS011;3606;52.930;8.644;2023-02-22T07:15:16;36.10;;;17.10;;
7128;SDS011;3606;52.930;8.644;2023-02-22T07:17:43;37.50;;;15.77;;
7128;SDS011;3606;52.930;8.644;2023-02-22T07:20:09;31.67;;;16.63;;
7128;SDS011;3606;52.930;8.644;2023-02-22T07:22:35;36.03;;;16.13;;
7128;SDS011;3606;52.930;8.644;2023-02-22T07:25:03;35.00;;;16.77;;
7128;SDS011;3606;52.930;8.644;2023-02-22T07:27:36;30.23;;;15.30;;
7128;SDS011;3606;52.930;8.644;2023-02-22T07:30:03;32.97;;;14.93;;
7128;SDS011;3606;52.930;8.644;2023-02-22T07:32:30;33.03;;;15.90;;
7128;SDS011;3606;52.930;8.644;2023-02-22T07:34:55;33.47;;;15.47;;
7128;SDS011;3606;52.930;8.644;2023-02-22T07:37:21;32.77;;;15.67;;
7128;SDS011;3606;52.930;8.644;2023-02-22T07:39:46;34.17;;;14.50;;
7128;SDS011;3606;52.930;8.644;2023-02-22T07:42:12;26.80;;;14.47;;
7128;SDS011;3606;52.930;8.644;2023-02-22T07:44:37;29.40;;;15.20;;
7128;SDS011;3606;52.930;8.644;2023-02-22T07:47:03;26.10;;;14.10;;
7128;SDS011;3606;52.930;8.644;2023-02-22T07:49:29;29.07;;;14.10;;
7128;SDS011;3606;52.930;8.644;2023-02-22T07:51:54;27.20;;;14.37;;
7128;SDS011;3606;52.930;8.644;2023-02-22T07:54:20;31.03;;;14.20;;
7128;SDS011;3606;52.930;8.644;2023-02-22T07:56:46;30.63;;;13.53;;
7128;SDS011;3606;52.930;8.644;2023-02-22T07:59:12;26.47;;;14.23;;
7128;SDS011;3606;52.930;8.644;2023-02-22T08:01:38;29.03;;;13.97;;
7128;SDS011;3606;52.930;8.644;2023-02-22T08:04:04;26.13;;;13.17;;
7128;SDS011;3606;52.930;8.644;2023-02-22T08:06:30;24.33;;;13.30;;
7128;SDS011;3606;52.930;8.644;2023-02-22T08:08:56;24.87;;;13.33;;
7128;SDS011;3606;52.930;8.644;2023-02-22T08:11:21;23.27;;;12.37;;
7128;SDS011;3606;52.930;8.644;2023-02-22T08:13:48;22.97;;;12.60;;
7128;SDS011;3606;52.930;8.644;2023-02-22T08:16:14;25.47;;;13.73;;
7128;SDS011;3606;52.930;8.644;2023-02-22T08:18:39;25.47;;;14.17;;
7128;SDS011;3606;52.930;8.644;2023-02-22T08:21:09;27.60;;;13.33;;
7128;SDS011;3606;52.930;8.644;2023-02-22T08:23:34;23.73;;;12.97;;
7128;SDS011;3606;52.930;8.644;2023-02-22T08:26:04;25.47;;;14.63;;
7128;SDS011;3606;52.930;8.644;2023-02-22T08:28:31;27.73;;;14.53;;
7128;SDS011;3606;52.930;8.644;2023-02-22T08:30:57;24.03;;;13.30;;
7128;SDS011;3606;52.930;8.644;2023-02-22T08:33:23;23.40;;;12.83;;
7128;SDS011;3606;52.930;8.644;2023-02-22T08:35:48;28.20;;;13.30;;
7128;SDS011;3606;52.930;8.644;2023-02-22T08:38:17;24.40;;;13.67;;
7128;SDS011;3606;52.930;8.644;2023-02-22T08:40:46;27.47;;;14.67;;
7128;SDS011;3606;52.930;8.644;2023-02-22T08:43:12;27.97;;;14.47;;
7128;SDS011;3606;52.930;8.644;2023-02-22T08:45:38;27.27;;;14.77;;
7128;SDS011;3606;52.930;8.644;2023-02-22T08:48:04;23.47;;;13.37;;
7128;SDS011;3606;52.930;8.644;2023-02-22T08:50:30;24.90;;;13.37;;
7128;SDS011;3606;52.930;8.644;2023-02-22T08:53:01;25.63;;;14.17;;
7128;SDS011;3606;52.930;8.644;2023-02-22T08:55:32;26.73;;;13.63;;
7128;SDS011;3606;52.930;8.644;2023-02-22T08:57:59;22.60;;;12.97;;
7128;SDS011;3606;52.930;8.644;2023-02-22T09:00:27;20.50;;;11.80;;
7128;SDS011;3606;52.930;8.644;2023-02-22T09:02:57;21.57;;;12.90;;
7128;SDS011;3606;52.930;8.644;2023-02-22T09:05:23;21.00;;;11.10;;
7128;SDS011;3606;52.930;8.644;2023-02-22T09:07:49;21.67;;;11.00;;
7128;SDS011;3606;52.930;8.644;2023-02-22T09:10:18;22.83;;;12.40;;
7128;SDS011;3606;52.930;8.644;2023-02-22T09:12:48;17.90;;;10.47;;
7128;SDS011;3606;52.930;8.644;2023-02-22T09:15:15;19.43;;;11.43;;
7128;SDS011;3606;52.930;8.644;2023-02-22T09:17:41;21.30;;;11.90;;
7128;SDS011;3606;52.930;8.644;2023-02-22T09:20:07;22.30;;;12.07;;
7128;SDS011;3606;52.930;8.644;2023-02-22T09:22:33;18.87;;;12.03;;
7128;SDS011;3606;52.930;8.644;2023-02-22T09:24:59;19.03;;;11.80;;
7128;SDS011;3606;52.930;8.644;2023-02-22T09:27:24;18.87;;;10.77;;
7128;SDS011;3606;52.930;8.644;2023-02-22T09:29:52;23.00;;;11.23;;
7128;SDS011;3606;52.930;8.644;2023-02-22T09:32:18;19.00;;;11.57;;
7128;SDS011;3606;52.930;8.644;2023-02-22T09:34:45;16.77;;;11.70;;
7128;SDS011;3606;52.930;8.644;2023-02-22T09:37:11;18.67;;;10.97;;
7128;SDS011;3606;52.930;8.644;2023-02-22T09:39:37;19.63;;;12.03;;
7128;SDS011;3606;52.930;8.644;2023-02-22T09:45:13;21.60;;;11.43;;
7128;SDS011;3606;52.930;8.644;2023-02-22T09:47:46;18.50;;;11.00;;
7128;SDS011;3606;52.930;8.644;2023-02-22T09:50:27;19.40;;;10.63;;
7128;SDS011;3606;52.930;8.644;2023-02-22T09:53:01;21.17;;;11.47;;
7128;SDS011;3606;52.930;8.644;2023-02-22T09:55:46;22.67;;;11.10;;
7128;SDS011;3606;52.930;8.644;2023-02-22T09:58:18;17.93;;;10.70;;
7128;SDS011;3606;52.930;8.644;2023-02-22T10:01:21;19.73;;;11.30;;
7128;SDS011;3606;52.930;8.644;2023-02-22T10:06:29;18.00;;;10.70;;
7128;SDS011;3606;52.930;8.644;2023-02-22T10:08:58;22.20;;;11.97;;
7128;SDS011;3606;52.930;8.644;2023-02-22T10:11:34;18.70;;;11.20;;
7128;SDS011;3606;52.930;8.644;2023-02-22T10:25:39;20.00;;;11.37;;
7128;SDS011;3606;52.930;8.644;2023-02-22T10:30:41;21.47;;;11.90;;
7128;SDS011;3606;52.930;8.644;2023-02-22T10:33:12;17.97;;;12.13;;
7128;SDS011;3606;52.930;8.644;2023-02-22T10:35:43;23.00;;;11.90;;
7128;SDS011;3606;52.930;8.644;2023-02-22T10:38:14;19.30;;;12.13;;
7128;SDS011;3606;52.930;8.644;2023-02-22T10:41:13;19.47;;;12.70;;
7128;SDS011;3606;52.930;8.644;2023-02-22T10:43:47;17.50;;;11.90;;
7128;SDS011;3606;52.930;8.644;2023-02-22T10:46:14;19.33;;;11.50;;
7128;SDS011;3606;52.930;8.644;2023-02-22T10:48:44;19.70;;;12.77;;
7128;SDS011;3606;52.930;8.644;2023-02-22T10:51:14;21.80;;;12.07;;
7128;SDS011;3606;52.930;8.644;2023-02-22T10:53:39;20.90;;;12.93;;
7128;SDS011;3606;52.930;8.644;2023-02-22T10:59:18;19.40;;;11.90;;
7128;SDS011;3606;52.930;8.644;2023-02-22T11:01:50;21.27;;;12.57;;
7128;SDS011;3606;52.930;8.644;2023-02-22T11:04:18;20.90;;;12.47;;
7128;SDS011;3606;52.930;8.644;2023-02-22T11:06:48;18.00;;;12.07;;
7128;SDS011;3606;52.930;8.644;2023-02-22T11:09:23;20.17;;;11.90;;
7128;SDS011;3606;52.930;8.644;2023-02-22T11:11:50;20.10;;;12.07;;
7128;SDS011;3606;52.930;8.644;2023-02-22T11:14:33;20.17;;;11.40;;
7128;SDS011;3606;52.930;8.644;2023-02-22T11:16:59;18.87;;;11.63;;
7128;SDS011;3606;52.930;8.644;2023-02-22T11:19:30;18.73;;;12.07;;
7128;SDS011;3606;52.930;8.644;2023-02-22T11:21:58;18.53;;;12.13;;
7128;SDS011;3606;52.930;8.644;2023-02-22T11:27:28;27.03;;;14.73;;
7128;SDS011;3606;52.930;8.644;2023-02-22T11:30:09;20.73;;;12.47;;
7128;SDS011;3606;52.930;8.644;2023-02-22T11:32:38;18.70;;;11.80;;
7128;SDS011;3606;52.930;8.644;2023-02-22T11:37:44;22.20;;;12.73;;
7128;SDS011;3606;52.930;8.644;2023-02-22T11:40:15;18.40;;;11.90;;
7128;SDS011;3606;52.930;8.644;2023-02-22T11:42:46;19.23;;;12.50;;
7128;SDS011;3606;52.930;8.644;2023-02-22T11:45:16;21.47;;;12.30;;
7128;SDS011;3606;52.930;8.644;2023-02-22T11:47:50;19.07;;;12.73;;
7128;SDS011;3606;52.930;8.644;2023-02-22T12:11:49;19.10;;;11.03;;
7128;SDS011;3606;52.930;8.644;2023-02-22T12:14:45;21.20;;;11.63;;
7128;SDS011;3606;52.930;8.644;2023-02-22T12:17:30;21.47;;;13.00;;
7128;SDS011;3606;52.930;8.644;2023-02-22T12:20:18;19.33;;;12.53;;
7128;SDS011;3606;52.930;8.644;2023-02-22T12:22:53;19.83;;;12.83;;
7128;SDS011;3606;52.930;8.644;2023-02-22T12:25:25;19.93;;;12.87;;
7128;SDS011;3606;52.930;8.644;2023-02-22T12:28:00;27.13;;;13.10;;
7128;SDS011;3606;52.930;8.644;2023-02-22T12:30:41;23.43;;;12.73;;
7128;SDS011;3606;52.930;8.644;2023-02-22T12:33:13;17.63;;;11.83;;
7128;SDS011;3606;52.930;8.644;2023-02-22T12:35:44;21.87;;;12.77;;
7128;SDS011;3606;52.930;8.644;2023-02-22T12:41:14;23.10;;;13.10;;
7128;SDS011;3606;52.930;8.644;2023-02-22T12:43:53;19.17;;;11.63;;
7128;SDS011;3606;52.930;8.644;2023-02-22T12:46:38;20.07;;;12.20;;
7128;SDS011;3606;52.930;8.644;2023-02-22T12:56:49;24.23;;;13.03;;
7128;SDS011;3606;52.930;8.644;2023-02-22T12:59:34;19.93;;;12.17;;
7128;SDS011;3606;52.930;8.644;2023-02-22T13:02:24;24.43;;;13.07;;
7128;SDS011;3606;52.930;8.644;2023-02-22T13:05:04;18.70;;;11.97;;
7128;SDS011;3606;52.930;8.644;2023-02-22T13:07:41;21.90;;;12.73;;
7128;SDS011;3606;52.930;8.644;2023-02-22T13:13:16;19.70;;;13.13;;
7128;SDS011;3606;52.930;8.644;2023-02-22T13:18:44;20.37;;;12.47;;
7128;SDS011;3606;52.930;8.644;2023-02-22T13:23:57;22.50;;;13.07;;
7128;SDS011;3606;52.930;8.644;2023-02-22T13:26:37;20.53;;;13.47;;
7128;SDS011;3606;52.930;8.644;2023-02-22T13:29:12;24.57;;;13.73;;
7128;SDS011;3606;52.930;8.644;2023-02-22T13:34:37;23.30;;;13.87;;
7128;SDS011;3606;52.930;8.644;2023-02-22T13:37:33;23.13;;;13.37;;
7128;SDS011;3606;52.930;8.644;2023-02-22T13:56:50;24.37;;;14.60;;
7128;SDS011;3606;52.930;8.644;2023-02-22T13:59:22;20.63;;;13.90;;
7128;SDS011;3606;52.930;8.644;2023-02-22T14:01:59;21.17;;;13.83;;
7128;SDS011;3606;52.930;8.644;2023-02-22T14:07:18;25.67;;;14.53;;
7128;SDS011;3606;52.930;8.644;2023-02-22T14:09:54;21.30;;;13.93;;
7128;SDS011;3606;52.930;8.644;2023-02-22T14:22:44;19.13;;;13.37;;
7128;SDS011;3606;52.930;8.644;2023-02-22T14:25:31;20.63;;;12.87;;
7128;SDS011;3606;52.930;8.644;2023-02-22T14:28:09;23.23;;;13.90;;
7128;SDS011;3606;52.930;8.644;2023-02-22T14:31:05;27.53;;;14.03;;
7128;SDS011;3606;52.930;8.644;2023-02-22T14:36:19;23.47;;;13.87;;
7128;SDS011;3606;52.930;8.644;2023-02-22T14:38:53;24.37;;;14.77;;
7128;SDS011;3606;52.930;8.644;2023-02-22T14:41:26;22.53;;;14.77;;
7128;SDS011;3606;52.930;8.644;2023-02-22T14:43:54;23.93;;;14.40;;
7128;SDS011;3606;52.930;8.644;2023-02-22T14:46:22;19.20;;;12.90;;
7128;SDS011;3606;52.930;8.644;2023-02-22T14:49:05;24.43;;;14.27;;
7128;SDS011;3606;52.930;8.644;2023-02-22T14:51:41;24.30;;;15.50;;
7128;SDS011;3606;52.930;8.644;2023-02-22T14:54:19;26.57;;;14.20;;
7128;SDS011;3606;52.930;8.644;2023-02-22T14:57:02;22.30;;;14.40;;
7128;SDS011;3606;52.930;8.644;2023-02-22T15:00:13;21.80;;;13.83;;
7128;SDS011;3606;52.930;8.644;2023-02-22T15:02:44;29.47;;;14.53;;
7128;SDS011;3606;52.930;8.644;2023-02-22T15:05:12;21.20;;;13.40;;
7128;SDS011;3606;52.930;8.644;2023-02-22T15:07:49;24.03;;;14.60;;
7128;SDS011;3606;52.930;8.644;2023-02-22T15:10:30;23.40;;;14.80;;
7128;SDS011;3606;52.930;8.644;2023-02-22T15:13:17;22.43;;;13.67;;
7128;SDS011;3606;52.930;8.644;2023-02-22T15:15:57;24.40;;;13.87;;
7128;SDS011;3606;52.930;8.644;2023-02-22T15:18:26;23.00;;;14.53;;
7128;SDS011;3606;52.930;8.644;2023-02-22T15:21:02;22.20;;;14.77;;
7128;SDS011;3606;52.930;8.644;2023-02-22T15:26:05;23.20;;;14.80;;
7128;SDS011;3606;52.930;8.644;2023-02-22T15:28:32;25.07;;;15.03;;
7128;SDS011;3606;52.930;8.644;2023-02-22T15:31:13;22.93;;;14.40;;
7128;SDS011;3606;52.930;8.644;2023-02-22T15:33:39;22.70;;;14.27;;
7128;SDS011;3606;52.930;8.644;2023-02-22T15:36:11;26.00;;;15.70;;
7128;SDS011;3606;52.930;8.644;2023-02-22T15:38:39;22.57;;;15.13;;
7128;SDS011;3606;52.930;8.644;2023-02-22T15:41:07;22.87;;;14.80;;
7128;SDS011;3606;52.930;8.644;2023-02-22T15:43:44;26.00;;;15.13;;
7128;SDS011;3606;52.930;8.644;2023-02-22T15:46:23;26.00;;;16.23;;
7128;SDS011;3606;52.930;8.644;2023-02-22T15:49:16;23.20;;;14.23;;
7128;SDS011;3606;52.930;8.644;2023-02-22T15:51:44;23.53;;;15.50;;
7128;SDS011;3606;52.930;8.644;2023-02-22T15:54:15;25.27;;;14.60;;
7128;SDS011;3606;52.930;8.644;2023-02-22T15:56:48;22.57;;;14.87;;
7128;SDS011;3606;52.930;8.644;2023-02-22T15:59:16;25.50;;;14.33;;
7128;SDS011;3606;52.930;8.644;2023-02-22T16:01:45;23.60;;;15.27;;
7128;SDS011;3606;52.930;8.644;2023-02-22T16:04:22;22.80;;;13.80;;
7128;SDS011;3606;52.930;8.644;2023-02-22T16:06:50;24.60;;;15.33;;
7128;SDS011;3606;52.930;8.644;2023-02-22T16:12:07;22.40;;;14.80;;
7128;SDS011;3606;52.930;8.644;2023-02-22T16:19:53;28.50;;;18.10;;
7128;SDS011;3606;52.930;8.644;2023-02-22T16:24:53;29.53;;;19.17;;
7128;SDS011;3606;52.930;8.644;2023-02-22T16:28:03;26.60;;;16.83;;
7128;SDS011;3606;52.930;8.644;2023-02-22T16:30:54;23.37;;;15.53;;
7128;SDS011;3606;52.930;8.644;2023-02-22T16:33:21;26.13;;;15.37;;
7128;SDS011;3606;52.930;8.644;2023-02-22T16:35:47;26.30;;;13.00;;
7128;SDS011;3606;52.930;8.644;2023-02-22T16:38:21;23.43;;;15.30;;
7128;SDS011;3606;52.930;8.644;2023-02-22T16:40:51;23.80;;;15.33;;
7128;SDS011;3606;52.930;8.644;2023-02-22T16:43:22;23.10;;;13.93;;
7128;SDS011;3606;52.930;8.644;2023-02-22T16:45:50;27.60;;;15.43;;
7128;SDS011;3606;52.930;8.644;2023-02-22T16:48:23;33.07;;;16.00;;
7128;SDS011;3606;52.930;8.644;2023-02-22T16:50:52;25.80;;;14.77;;
7128;SDS011;3606;52.930;8.644;2023-02-22T16:53:20;23.77;;;13.50;;
7128;SDS011;3606;52.930;8.644;2023-02-22T16:55:47;23.57;;;15.37;;
7128;SDS011;3606;52.930;8.644;2023-02-22T16:58:15;26.83;;;15.40;;
7128;SDS011;3606;52.930;8.644;2023-02-22T17:00:43;25.93;;;15.73;;
7128;SDS011;3606;52.930;8.644;2023-02-22T17:03:10;23.93;;;15.33;;
7128;SDS011;3606;52.930;8.644;2023-02-22T17:05:39;27.17;;;16.23;;
7128;SDS011;3606;52.930;8.644;2023-02-22T17:08:05;31.30;;;17.40;;
7128;SDS011;3606;52.930;8.644;2023-02-22T17:10:31;29.60;;;16.80;;
7128;SDS011;3606;52.930;8.644;2023-02-22T17:12:57;29.37;;;17.43;;
7128;SDS011;3606;52.930;8.644;2023-02-22T17:15:24;31.73;;;19.47;;
7128;SDS011;3606;52.930;8.644;2023-02-22T17:17:52;48.87;;;27.07;;
7128;SDS011;3606;52.930;8.644;2023-02-22T17:20:19;39.03;;;22.33;;
7128;SDS011;3606;52.930;8.644;2023-02-22T17:22:57;32.60;;;19.70;;
7128;SDS011;3606;52.930;8.644;2023-02-22T17:25:37;32.10;;;19.37;;
7128;SDS011;3606;52.930;8.644;2023-02-22T17:28:05;33.17;;;18.90;;
7128;SDS011;3606;52.930;8.644;2023-02-22T17:30:31;31.87;;;18.97;;
7128;SDS011;3606;52.930;8.644;2023-02-22T17:32:58;34.73;;;18.70;;
7128;SDS011;3606;52.930;8.644;2023-02-22T17:35:28;27.90;;;17.73;;